createdAt,value
2023-05-07T00:00:44.174Z,15.70
2023-05-07T00:06:06.042Z,15.38
2023-05-07T00:11:29.238Z,15.34
2023-05-07T00:16:51.068Z,15.44
2023-05-07T00:22:12.994Z,15.46
2023-05-07T00:27:34.763Z,15.35
2023-05-07T00:32:56.512Z,15.20
2023-05-07T00:38:18.223Z,15.21
2023-05-07T00:43:40.049Z,15.04
2023-05-07T00:49:02.041Z,15.20
2023-05-07T00:54:23.792Z,15.23
2023-05-07T00:59:45.636Z,15.22
2023-05-07T01:05:10.409Z,15.16
2023-05-07T01:10:33.077Z,14.99
2023-05-07T01:15:54.924Z,15.12
2023-05-07T01:21:18.574Z,14.94
2023-05-07T01:26:40.948Z,14.88
2023-05-07T01:32:04.308Z,14.95
2023-05-07T01:37:26.705Z,14.86
2023-05-07T01:42:49.208Z,14.88
2023-05-07T01:48:12.559Z,14.87
2023-05-07T01:53:38.019Z,14.87
2023-05-07T01:58:59.736Z,14.74
2023-05-07T02:04:22.046Z,14.51
2023-05-07T02:09:43.710Z,14.49
2023-05-07T02:15:06.499Z,14.53
2023-05-07T02:20:28.414Z,14.61
2023-05-07T02:25:50.204Z,14.67
2023-05-07T02:31:11.937Z,14.39
2023-05-07T02:36:33.618Z,14.48
2023-05-07T02:41:55.336Z,14.62
2023-05-07T02:47:17.034Z,14.41
2023-05-07T02:52:38.783Z,14.38
2023-05-07T02:58:00.502Z,14.29
2023-05-07T03:03:22.345Z,14.24
2023-05-07T03:08:44.356Z,14.29
2023-05-07T03:14:06.168Z,14.28
2023-05-07T03:19:27.867Z,14.15
2023-05-07T03:24:49.566Z,14.13
2023-05-07T03:30:12.335Z,14.16
2023-05-07T03:35:34.235Z,14.10
2023-05-07T03:40:56.014Z,14.00
2023-05-07T03:46:17.772Z,13.51
2023-05-07T03:51:39.504Z,13.69
2023-05-07T03:57:01.234Z,13.76
2023-05-07T04:02:22.970Z,13.78
2023-05-07T04:07:45.437Z,13.90
2023-05-07T04:13:07.237Z,13.76
2023-05-07T04:18:29.313Z,13.67
2023-05-07T04:23:51.020Z,13.80
2023-05-07T04:29:13.037Z,13.93
2023-05-07T04:34:34.736Z,13.70
2023-05-07T04:39:56.514Z,13.60
2023-05-07T04:45:18.438Z,13.72
2023-05-07T04:50:40.186Z,13.83
2023-05-07T04:56:01.945Z,13.73
2023-05-07T05:01:23.702Z,13.84
2023-05-07T05:06:45.789Z,13.93
2023-05-07T05:12:08.323Z,13.92
2023-05-07T05:17:30.145Z,13.96
2023-05-07T05:22:51.878Z,14.03
2023-05-07T05:28:13.545Z,14.04
2023-05-07T05:33:35.550Z,13.70
2023-05-07T05:38:57.258Z,13.70
2023-05-07T05:44:18.960Z,13.61
2023-05-07T05:49:40.743Z,13.74
2023-05-07T05:55:02.433Z,13.74
2023-05-07T06:00:24.389Z,13.93
2023-05-07T06:05:46.177Z,14.22
2023-05-07T06:11:07.930Z,14.20
2023-05-07T06:16:30.001Z,14.28
2023-05-07T06:21:51.782Z,14.31
2023-05-07T06:27:13.556Z,14.36
2023-05-07T06:32:35.307Z,14.49
2023-05-07T06:37:57.018Z,14.74
2023-05-07T06:43:18.753Z,14.82
2023-05-07T06:48:40.451Z,14.72
2023-05-07T06:54:02.444Z,14.78
2023-05-07T06:59:24.740Z,14.91
2023-05-07T07:04:46.625Z,14.88
2023-05-07T07:10:09.010Z,15.10
2023-05-07T07:15:30.925Z,15.24
2023-05-07T07:20:52.685Z,15.41
2023-05-07T07:26:14.401Z,15.53
2023-05-07T07:31:36.129Z,15.71
2023-05-07T07:36:57.899Z,16.10
2023-05-07T07:42:19.626Z,16.40
2023-05-07T07:47:41.635Z,16.57
2023-05-07T07:53:03.434Z,16.71
2023-05-07T07:58:25.832Z,16.78
2023-05-07T08:03:47.875Z,16.93
2023-05-07T08:09:09.849Z,16.99
2023-05-07T08:14:31.628Z,17.08
2023-05-07T08:19:53.349Z,17.13
2023-05-07T08:25:15.063Z,17.30
2023-05-07T08:30:36.842Z,17.40
2023-05-07T08:35:58.517Z,17.52
2023-05-07T08:41:21.273Z,17.54
2023-05-07T08:46:44.472Z,17.59
2023-05-07T08:52:08.675Z,17.66
2023-05-07T08:57:31.655Z,17.73
2023-05-07T09:02:54.287Z,17.89
2023-05-07T09:08:17.056Z,18.02
2023-05-07T09:13:38.809Z,18.26
2023-05-07T09:19:01.633Z,18.48
2023-05-07T09:24:23.338Z,18.34
2023-05-07T09:29:46.075Z,18.40
2023-05-07T09:35:16.870Z,18.40
2023-05-07T09:40:38.688Z,18.74
2023-05-07T09:46:25.310Z,18.78
2023-05-07T09:51:50.510Z,18.78
2023-05-07T09:57:13.787Z,18.90
2023-05-07T10:02:37.154Z,18.96
2023-05-07T10:07:59.673Z,19.02
2023-05-07T10:13:22.222Z,19.07
2023-05-07T10:18:44.740Z,19.09
2023-05-07T10:24:14.884Z,19.30
2023-05-07T10:29:42.338Z,19.41
2023-05-07T10:35:07.850Z,19.48
2023-05-07T10:40:29.633Z,19.50
2023-05-07T10:46:10.808Z,19.66
2023-05-07T10:51:36.658Z,19.74
2023-05-07T10:57:44.529Z,19.80
2023-05-07T11:03:07.837Z,19.72
2023-05-07T11:08:57.082Z,19.84
2023-05-07T11:14:40.936Z,19.77
2023-05-07T11:20:03.552Z,19.73
2023-05-07T11:25:26.413Z,19.82
2023-05-07T11:30:48.405Z,19.87
2023-05-07T11:36:10.763Z,19.86
2023-05-07T11:41:40.802Z,19.98
2023-05-07T11:47:03.141Z,19.87
2023-05-07T11:52:25.723Z,19.90
2023-05-07T11:57:47.548Z,19.85
2023-05-07T12:03:09.386Z,19.82
2023-05-07T12:08:31.331Z,19.65
2023-05-07T12:13:58.823Z,19.58
2023-05-07T12:19:21.900Z,19.55
2023-05-07T12:24:57.384Z,19.30
2023-05-07T12:30:19.272Z,18.52
2023-05-07T12:35:43.363Z,17.80
2023-05-07T12:41:08.024Z,17.16
2023-05-07T12:46:29.849Z,16.97
2023-05-07T12:51:51.815Z,16.96
2023-05-07T12:57:13.495Z,16.91
2023-05-07T13:02:38.878Z,16.53
2023-05-07T13:08:00.760Z,16.40
2023-05-07T13:13:22.811Z,16.17
2023-05-07T13:18:46.874Z,16.31
2023-05-07T13:24:08.842Z,16.08
2023-05-07T13:29:31.269Z,15.79
2023-05-07T13:34:52.978Z,15.51
2023-05-07T13:40:14.762Z,15.37
2023-05-07T13:45:36.536Z,15.47
2023-05-07T13:50:58.274Z,15.37
2023-05-07T13:56:21.161Z,15.64
2023-05-07T14:01:42.941Z,15.79
2023-05-07T14:07:04.791Z,15.48
2023-05-07T14:12:26.479Z,15.52
2023-05-07T14:17:48.241Z,15.65
2023-05-07T14:23:10.564Z,15.55
2023-05-07T14:28:32.412Z,15.65
2023-05-07T14:33:54.527Z,15.58
2023-05-07T14:39:16.484Z,15.53
2023-05-07T14:44:38.271Z,15.35
2023-05-07T14:50:01.988Z,15.47
2023-05-07T14:55:24.078Z,15.64
2023-05-07T15:00:45.796Z,15.90
2023-05-07T15:06:07.673Z,15.91
2023-05-07T15:11:29.603Z,15.94
2023-05-07T15:16:51.346Z,15.89
2023-05-07T15:22:13.093Z,15.83
2023-05-07T15:27:34.866Z,15.98
2023-05-07T15:32:56.702Z,15.99
2023-05-07T15:38:18.485Z,15.94
2023-05-07T15:43:47.066Z,16.05
2023-05-07T15:49:08.831Z,16.12
2023-05-07T15:54:31.059Z,16.05
2023-05-07T15:59:52.776Z,16.03
2023-05-07T16:05:14.731Z,16.13
2023-05-07T16:10:36.530Z,16.01
2023-05-07T16:15:59.592Z,15.93
2023-05-07T16:21:21.363Z,16.04
2023-05-07T16:26:43.137Z,16.04
2023-05-07T16:32:05.221Z,16.16
2023-05-07T16:37:26.926Z,16.14
2023-05-07T16:42:48.777Z,16.05
2023-05-07T16:48:10.746Z,16.16
2023-05-07T16:53:32.886Z,16.12
2023-05-07T16:58:55.583Z,16.13
2023-05-07T17:04:17.267Z,16.16
2023-05-07T17:09:39.039Z,16.21
2023-05-07T17:15:00.779Z,16.34
2023-05-07T17:20:23.511Z,16.20
2023-05-07T17:25:45.687Z,16.10
2023-05-07T17:31:07.689Z,16.06
2023-05-07T17:36:29.444Z,16.04
2023-05-07T17:41:51.231Z,15.99
2023-05-07T17:47:14.197Z,16.00
2023-05-07T17:52:36.507Z,16.02
2023-05-07T17:57:58.369Z,16.00
2023-05-07T18:03:20.402Z,15.95
2023-05-07T18:08:42.275Z,15.91
2023-05-07T18:14:04.088Z,15.91
2023-05-07T18:19:27.009Z,16.05
2023-05-07T18:24:49.511Z,16.06
2023-05-07T18:30:11.790Z,16.09
2023-05-07T18:35:34.098Z,15.98
2023-05-07T18:41:03.750Z,15.92
2023-05-07T18:46:25.679Z,15.82
2023-05-07T18:51:47.418Z,15.76
2023-05-07T18:57:09.328Z,15.72
2023-05-07T19:02:31.077Z,15.72
2023-05-07T19:07:53.199Z,15.65
2023-05-07T19:13:15.017Z,15.53
2023-05-07T19:18:36.950Z,15.44
2023-05-07T19:23:58.716Z,15.43
2023-05-07T19:29:20.487Z,15.34
2023-05-07T19:34:42.186Z,15.48
2023-05-07T19:40:06.105Z,15.55
2023-05-07T19:45:27.990Z,15.49
2023-05-07T19:50:49.840Z,15.48
2023-05-07T19:56:12.867Z,15.33
2023-05-07T20:01:34.738Z,15.33
2023-05-07T20:06:57.438Z,15.35
2023-05-07T20:12:21.281Z,15.43
2023-05-07T20:17:43.167Z,15.47
2023-05-07T20:23:05.027Z,15.44
2023-05-07T20:28:27.142Z,15.44
2023-05-07T20:33:48.870Z,15.51
2023-05-07T20:39:14.499Z,15.57
2023-05-07T20:44:36.378Z,15.61
2023-05-07T20:49:58.078Z,15.57
2023-05-07T20:55:19.772Z,15.51
2023-05-07T21:00:41.437Z,15.57
2023-05-07T21:06:04.097Z,15.60
2023-05-07T21:11:25.899Z,15.63
2023-05-07T21:16:47.691Z,15.65
2023-05-07T21:22:09.442Z,15.60
2023-05-07T21:27:31.220Z,15.62
2023-05-07T21:32:55.378Z,15.63
2023-05-07T21:38:18.683Z,15.50
2023-05-07T21:43:40.574Z,15.47
2023-05-07T21:49:02.318Z,15.47
2023-05-07T21:54:24.153Z,15.39
2023-05-07T21:59:45.888Z,15.38
2023-05-07T22:05:07.990Z,15.38
2023-05-07T22:10:30.260Z,15.37
2023-05-07T22:15:57.332Z,15.43
2023-05-07T22:21:20.576Z,15.43
2023-05-07T22:26:42.290Z,15.34
2023-05-07T22:32:04.192Z,15.39
2023-05-07T22:37:26.866Z,15.35
2023-05-07T22:42:48.595Z,15.39
2023-05-07T22:48:10.411Z,15.44
2023-05-07T22:53:32.184Z,15.48
2023-05-07T22:58:53.860Z,15.45
2023-05-07T23:04:15.631Z,15.51
2023-05-07T23:09:37.330Z,15.51
2023-05-07T23:14:59.048Z,15.51
2023-05-07T23:20:20.799Z,15.50
2023-05-07T23:25:42.497Z,15.49
2023-05-07T23:31:07.270Z,15.49
2023-05-07T23:36:28.976Z,15.46
2023-05-07T23:41:50.685Z,15.37
2023-05-07T23:47:12.387Z,15.38
2023-05-07T23:52:34.052Z,15.35
2023-05-07T23:57:55.871Z,15.41
